createdAt,value
2019-01-16T00:00:10.824Z,12.20
2019-01-16T00:03:08.050Z,10.18
2019-01-16T00:06:00.432Z,8.40
2019-01-16T00:08:54.634Z,8.58
2019-01-16T00:11:35.163Z,8.30
2019-01-16T00:14:23.758Z,8.35
2019-01-16T00:17:21.960Z,8.53
2019-01-16T00:20:09.032Z,7.37
2019-01-16T00:22:57.538Z,7.28
2019-01-16T00:25:45.980Z,7.47
2019-01-16T00:28:33.141Z,7.53
2019-01-16T00:31:21.896Z,7.90
2019-01-16T00:34:02.308Z,8.35
2019-01-16T00:36:56.867Z,6.58
2019-01-16T00:39:44.034Z,9.35
2019-01-16T00:42:47.960Z,9.53
2019-01-16T00:45:26.117Z,9.15
2019-01-16T00:48:24.405Z,10.10
2019-01-16T00:51:06.360Z,8.73
2019-01-16T00:53:45.076Z,8.43
2019-01-16T00:56:33.556Z,8.98
2019-01-16T00:59:21.193Z,9.78
2019-01-16T01:02:09.671Z,9.98
2019-01-16T01:04:58.145Z,9.45
2019-01-16T01:07:45.042Z,8.78
2019-01-16T01:10:45.896Z,9.23
2019-01-16T01:13:32.281Z,10.13
2019-01-16T01:16:13.694Z,10.95
2019-01-16T01:19:00.769Z,11.12
2019-01-16T01:21:52.290Z,10.43
2019-01-16T01:24:49.858Z,9.38
2019-01-16T01:27:47.152Z,10.28
2019-01-16T01:30:44.260Z,10.00
2019-01-16T01:33:38.795Z,10.60
2019-01-16T01:36:39.390Z,10.18
2019-01-16T01:39:26.947Z,10.85
2019-01-16T01:42:23.849Z,10.55
2019-01-16T01:45:05.978Z,12.30
2019-01-16T01:48:00.509Z,10.72
2019-01-16T01:50:51.756Z,11.53
2019-01-16T01:53:38.739Z,11.25
2019-01-16T01:56:25.631Z,13.18
2019-01-16T01:59:14.131Z,10.90
2019-01-16T02:02:02.602Z,11.38
2019-01-16T02:04:49.451Z,10.85
2019-01-16T02:07:44.005Z,10.85
2019-01-16T02:10:30.490Z,11.22
2019-01-16T02:13:18.926Z,9.85
2019-01-16T02:16:07.891Z,10.23
2019-01-16T02:18:59.369Z,10.93
2019-01-16T02:21:57.646Z,10.45
2019-01-16T02:24:45.132Z,9.53
2019-01-16T02:27:36.646Z,9.95
2019-01-16T02:30:42.826Z,10.75
2019-01-16T02:33:24.574Z,9.63
2019-01-16T02:36:05.383Z,9.93
2019-01-16T02:39:11.918Z,9.80
2019-01-16T02:42:03.154Z,9.43
2019-01-16T02:44:56.918Z,9.58
2019-01-16T02:47:45.398Z,9.18
2019-01-16T02:50:33.861Z,9.35
2019-01-16T02:53:34.219Z,9.30
2019-01-16T02:56:34.833Z,9.30
2019-01-16T02:59:13.977Z,9.95
2019-01-16T03:02:14.639Z,9.55
2019-01-16T03:05:01.949Z,9.53
2019-01-16T03:08:08.891Z,9.35
2019-01-16T03:10:57.625Z,9.88
2019-01-16T03:13:40.588Z,10.00
2019-01-16T03:16:23.026Z,9.95
2019-01-16T03:19:29.779Z,10.63
2019-01-16T03:22:21.651Z,9.78
2019-01-16T03:25:09.155Z,9.83
2019-01-16T03:27:56.277Z,10.28
2019-01-16T03:30:48.292Z,10.93
2019-01-16T03:33:35.438Z,10.32
2019-01-16T03:36:19.616Z,11.10
2019-01-16T03:38:57.056Z,10.95
2019-01-16T03:41:54.916Z,11.65
2019-01-16T03:44:30.688Z,11.05
2019-01-16T03:47:19.191Z,10.13
2019-01-16T03:50:07.664Z,9.08
2019-01-16T03:52:59.211Z,9.38
2019-01-16T03:55:50.710Z,8.58
2019-01-16T03:58:39.203Z,9.43
2019-01-16T04:01:34.862Z,9.75
2019-01-16T04:04:25.412Z,8.58
2019-01-16T04:07:11.340Z,7.87
2019-01-16T04:10:14.931Z,9.43
2019-01-16T04:13:06.428Z,9.15
2019-01-16T04:16:04.065Z,10.35
2019-01-16T04:18:55.834Z,9.65
2019-01-16T04:21:42.987Z,10.65
2019-01-16T04:24:35.574Z,10.25
2019-01-16T04:27:36.507Z,9.90
2019-01-16T04:30:24.655Z,10.08
2019-01-16T04:33:31.578Z,8.80
2019-01-16T04:36:20.331Z,7.72
2019-01-16T04:39:04.568Z,7.60
2019-01-16T04:41:41.447Z,7.08
2019-01-16T04:44:47.885Z,8.00
2019-01-16T04:47:34.805Z,7.47
2019-01-16T04:50:27.256Z,7.10
2019-01-16T04:53:33.959Z,7.67
2019-01-16T04:56:21.001Z,7.62
2019-01-16T04:59:09.527Z,7.80
2019-01-16T05:02:10.426Z,8.55
2019-01-16T05:05:06.340Z,7.83
2019-01-16T05:07:45.494Z,7.72
2019-01-16T05:10:29.734Z,7.15
2019-01-16T05:13:31.235Z,8.10
2019-01-16T05:16:37.891Z,7.62
2019-01-16T05:19:20.991Z,8.30
2019-01-16T05:22:05.747Z,7.53
2019-01-16T05:24:52.931Z,8.03
2019-01-16T05:27:47.669Z,7.47
2019-01-16T05:30:48.071Z,7.85
2019-01-16T05:33:39.811Z,7.95
2019-01-16T05:36:15.676Z,7.35
2019-01-16T05:39:04.447Z,6.85
2019-01-16T05:41:53.159Z,8.50
2019-01-16T05:44:39.987Z,7.28
2019-01-16T05:47:23.250Z,7.08
2019-01-16T05:50:26.229Z,6.95
2019-01-16T05:53:24.128Z,6.17
2019-01-16T05:56:11.336Z,5.40
2019-01-16T05:58:59.465Z,5.78
2019-01-16T06:02:00.054Z,5.33
2019-01-16T06:04:45.620Z,4.65
2019-01-16T06:07:33.292Z,5.15
2019-01-16T06:10:32.749Z,6.28
2019-01-16T06:13:39.696Z,6.45
2019-01-16T06:16:26.733Z,6.45
2019-01-16T06:19:24.110Z,7.22
2019-01-16T06:22:15.894Z,5.95
2019-01-16T06:25:16.580Z,5.85
2019-01-16T06:28:11.360Z,6.45
2019-01-16T06:31:09.148Z,5.35
2019-01-16T06:33:53.690Z,5.72
2019-01-16T06:36:37.924Z,6.47
2019-01-16T06:39:26.837Z,6.22
2019-01-16T06:42:24.209Z,5.75
2019-01-16T06:45:01.547Z,6.35
2019-01-16T06:47:53.281Z,7.15
2019-01-16T06:50:42.977Z,6.92
2019-01-16T06:53:25.244Z,7.85
2019-01-16T06:56:12.244Z,7.62
2019-01-16T06:58:56.078Z,8.30
2019-01-16T07:01:50.379Z,6.87
2019-01-16T07:04:35.526Z,8.20
2019-01-16T07:07:16.335Z,8.05
2019-01-16T07:10:02.484Z,7.83
2019-01-16T07:13:05.903Z,8.68
2019-01-16T07:15:50.090Z,8.40
2019-01-16T07:18:42.115Z,8.30
2019-01-16T07:21:39.673Z,7.50
2019-01-16T07:24:28.121Z,7.25
2019-01-16T07:27:14.934Z,6.67
2019-01-16T07:29:53.403Z,6.95
2019-01-16T07:32:39.261Z,7.55
2019-01-16T07:35:32.011Z,6.92
2019-01-16T07:38:23.752Z,6.35
2019-01-16T07:41:18.278Z,5.70
2019-01-16T07:44:06.769Z,7.25
2019-01-16T07:47:01.082Z,5.92
2019-01-16T07:49:52.359Z,7.25
2019-01-16T07:52:39.862Z,6.72
2019-01-16T07:55:26.984Z,6.97
2019-01-16T07:58:27.695Z,7.00
2019-01-16T08:01:31.103Z,7.05
2019-01-16T08:04:28.424Z,7.30
2019-01-16T08:07:32.071Z,6.37
2019-01-16T08:10:19.054Z,7.47
2019-01-16T08:13:06.121Z,6.50
2019-01-16T08:15:52.984Z,6.03
2019-01-16T08:18:40.140Z,6.53
2019-01-16T08:21:20.704Z,7.20
2019-01-16T08:24:02.257Z,6.40
2019-01-16T08:26:59.154Z,5.58
2019-01-16T08:29:53.994Z,5.40
2019-01-16T08:32:37.639Z,6.12
2019-01-16T08:35:29.119Z,5.50
2019-01-16T08:38:16.260Z,4.53
2019-01-16T08:41:22.691Z,4.53
2019-01-16T08:44:13.865Z,4.62
2019-01-16T08:47:14.287Z,4.72
2019-01-16T08:50:08.216Z,4.72
2019-01-16T08:53:08.836Z,4.25
2019-01-16T08:56:15.356Z,4.70
2019-01-16T08:59:12.576Z,4.85
2019-01-16T09:01:59.531Z,4.35
2019-01-16T09:04:44.035Z,3.65
2019-01-16T09:07:47.728Z,4.12
2019-01-16T09:10:51.426Z,4.37
2019-01-16T09:13:38.180Z,3.72
2019-01-16T09:16:28.527Z,3.50
2019-01-16T09:19:22.922Z,4.58
2019-01-16T09:22:04.387Z,3.70
2019-01-16T09:24:58.633Z,4.67
2019-01-16T09:27:49.901Z,3.60
2019-01-16T09:30:44.381Z,3.45
2019-01-16T09:33:39.238Z,4.00
2019-01-16T09:36:36.659Z,3.92
2019-01-16T09:39:40.597Z,5.80
2019-01-16T09:42:27.259Z,4.42
2019-01-16T09:45:24.682Z,4.05
2019-01-16T09:48:11.358Z,4.15
2019-01-16T09:51:02.649Z,4.75
2019-01-16T09:53:52.851Z,3.90
2019-01-16T09:56:39.925Z,3.62
2019-01-16T09:59:27.402Z,3.30
2019-01-16T10:02:17.812Z,3.58
2019-01-16T10:05:04.898Z,3.52
2019-01-16T10:07:40.403Z,3.50
2019-01-16T10:10:28.803Z,3.65
2019-01-16T10:13:29.324Z,3.17
2019-01-16T10:16:16.189Z,4.05
2019-01-16T10:19:22.824Z,5.33
2019-01-16T10:22:26.259Z,5.75
2019-01-16T10:25:20.358Z,3.92
2019-01-16T10:28:07.258Z,3.70
2019-01-16T10:30:56.210Z,3.80
2019-01-16T10:33:40.295Z,3.83
2019-01-16T10:36:31.828Z,3.65
2019-01-16T10:39:32.373Z,3.60
2019-01-16T10:42:21.141Z,4.25
2019-01-16T10:45:10.221Z,3.58
2019-01-16T10:47:52.493Z,3.58
2019-01-16T10:50:46.946Z,3.17
2019-01-16T10:53:41.587Z,4.22
2019-01-16T10:56:24.372Z,3.58
2019-01-16T10:59:10.922Z,3.42
2019-01-16T11:02:05.530Z,3.85
2019-01-16T11:04:52.174Z,3.42
2019-01-16T11:07:52.835Z,3.77
2019-01-16T11:10:39.661Z,4.78
2019-01-16T11:13:28.188Z,4.20
2019-01-16T11:16:16.686Z,4.60
2019-01-16T11:19:04.206Z,4.60
2019-01-16T11:21:55.432Z,4.53
2019-01-16T11:24:53.070Z,5.25
2019-01-16T11:27:50.741Z,5.17
2019-01-16T11:30:47.086Z,5.20
2019-01-16T11:33:54.054Z,5.30
2019-01-16T11:36:41.033Z,5.78
2019-01-16T11:39:44.552Z,5.58
2019-01-16T11:42:37.020Z,5.15
2019-01-16T11:45:28.355Z,6.83
2019-01-16T11:48:15.587Z,6.37
2019-01-16T11:51:06.303Z,6.97
2019-01-16T11:54:07.867Z,7.28
2019-01-16T11:56:57.224Z,7.42
2019-01-16T11:59:51.806Z,7.60
2019-01-16T12:02:58.191Z,7.05
2019-01-16T12:05:46.938Z,7.72
2019-01-16T12:08:37.936Z,7.10
2019-01-16T12:11:24.874Z,6.65
2019-01-16T12:14:18.850Z,7.80
2019-01-16T12:17:13.427Z,8.00
2019-01-16T12:20:12.685Z,7.20
2019-01-16T12:23:00.234Z,7.80
2019-01-16T12:25:47.418Z,8.85
2019-01-16T12:28:38.675Z,8.55
2019-01-16T12:31:13.815Z,8.00
2019-01-16T12:33:52.771Z,8.28
2019-01-16T12:36:41.300Z,8.08
2019-01-16T12:39:28.239Z,8.00
2019-01-16T12:42:19.530Z,8.53
2019-01-16T12:45:05.691Z,9.23
2019-01-16T12:48:03.330Z,7.45
2019-01-16T12:51:03.963Z,8.40
2019-01-16T12:53:55.836Z,8.43
2019-01-16T12:56:35.189Z,9.03
2019-01-16T12:59:26.760Z,9.05
2019-01-16T13:02:13.971Z,8.58
2019-01-16T13:04:59.112Z,7.83
2019-01-16T13:07:54.308Z,8.58
2019-01-16T13:10:33.955Z,9.20
2019-01-16T13:13:34.967Z,7.67
2019-01-16T13:16:34.412Z,8.98
2019-01-16T13:19:23.189Z,8.55
2019-01-16T13:22:20.939Z,7.92
2019-01-16T13:25:07.880Z,8.33
2019-01-16T13:28:02.265Z,9.20
2019-01-16T13:30:56.937Z,9.33
2019-01-16T13:33:54.810Z,8.28
2019-01-16T13:36:46.638Z,7.60
2019-01-16T13:39:27.659Z,8.40
2019-01-16T13:42:28.098Z,8.13
2019-01-16T13:45:20.100Z,8.48
2019-01-16T13:48:11.603Z,7.67
2019-01-16T13:50:50.223Z,7.75
2019-01-16T13:53:45.006Z,7.85
2019-01-16T13:56:42.296Z,7.30
2019-01-16T13:59:36.668Z,7.85
2019-01-16T14:02:16.588Z,6.62
2019-01-16T14:05:20.283Z,7.08
2019-01-16T14:08:08.792Z,6.70
2019-01-16T14:11:08.137Z,7.55
2019-01-16T14:14:00.635Z,7.12
2019-01-16T14:16:47.742Z,7.10
2019-01-16T14:19:35.037Z,7.28
2019-01-16T14:22:24.188Z,7.83
2019-01-16T14:25:05.156Z,6.42
2019-01-16T14:27:56.545Z,8.13
2019-01-16T14:30:48.136Z,7.03
2019-01-16T14:33:48.882Z,8.43
2019-01-16T14:36:55.349Z,6.40
2019-01-16T14:39:42.583Z,6.53
2019-01-16T14:42:20.589Z,6.60
2019-01-16T14:45:12.619Z,6.85
2019-01-16T14:47:59.455Z,6.50
2019-01-16T14:50:48.180Z,7.12
2019-01-16T14:53:35.127Z,6.47
2019-01-16T14:56:23.138Z,5.92
2019-01-16T14:59:11.582Z,6.65
2019-01-16T15:02:07.641Z,6.90
2019-01-16T15:04:54.740Z,6.50
2019-01-16T15:07:32.873Z,6.12
2019-01-16T15:10:24.886Z,6.90
2019-01-16T15:13:11.867Z,6.30
2019-01-16T15:16:00.320Z,7.40
2019-01-16T15:18:47.218Z,6.35
2019-01-16T15:21:44.433Z,7.15
2019-01-16T15:24:23.434Z,6.65
2019-01-16T15:27:02.483Z,5.80
2019-01-16T15:30:00.108Z,5.35
2019-01-16T15:32:46.211Z,7.47
2019-01-16T15:35:25.696Z,7.08
2019-01-16T15:38:17.255Z,6.15
2019-01-16T15:41:08.797Z,7.17
2019-01-16T15:44:09.194Z,6.67
2019-01-16T15:47:10.118Z,6.37
2019-01-16T15:49:57.044Z,6.72
2019-01-16T15:52:44.013Z,6.45
2019-01-16T15:55:32.683Z,6.87
2019-01-16T15:58:18.308Z,7.05
2019-01-16T16:01:05.386Z,6.50
2019-01-16T16:03:46.142Z,7.30
2019-01-16T16:06:34.610Z,8.90
2019-01-16T16:09:19.726Z,7.78
2019-01-16T16:12:20.271Z,6.50
2019-01-16T16:15:07.763Z,7.03
2019-01-16T16:17:54.602Z,8.08
2019-01-16T16:20:48.320Z,6.12
2019-01-16T16:23:42.836Z,6.28
2019-01-16T16:26:46.733Z,6.95
2019-01-16T16:29:35.402Z,7.80
2019-01-16T16:32:22.310Z,6.20
2019-01-16T16:35:09.512Z,6.15
2019-01-16T16:37:56.661Z,5.90
2019-01-16T16:40:51.222Z,6.60
2019-01-16T16:43:51.817Z,6.45
2019-01-16T16:46:40.315Z,5.72
2019-01-16T16:49:41.279Z,7.45
2019-01-16T16:52:29.770Z,6.80
2019-01-16T16:55:17.055Z,6.30
2019-01-16T16:57:59.276Z,7.05
2019-01-16T17:00:54.119Z,5.70
2019-01-16T17:03:39.783Z,6.65
2019-01-16T17:06:25.658Z,6.75
2019-01-16T17:09:16.918Z,7.55
2019-01-16T17:12:07.107Z,7.65
2019-01-16T17:14:54.179Z,7.35
2019-01-16T17:17:41.598Z,7.37
2019-01-16T17:20:45.641Z,6.53
2019-01-16T17:23:32.810Z,6.22
2019-01-16T17:26:27.265Z,7.50
2019-01-16T17:29:27.701Z,6.20
2019-01-16T17:32:15.247Z,6.40
2019-01-16T17:35:02.535Z,5.92
2019-01-16T17:37:57.300Z,6.80
2019-01-16T17:40:53.820Z,6.60
2019-01-16T17:43:41.140Z,7.05
2019-01-16T17:46:47.670Z,5.80
2019-01-16T17:49:39.140Z,6.40
2019-01-16T17:52:42.946Z,5.35
2019-01-16T17:55:29.922Z,6.03
2019-01-16T17:58:18.458Z,6.72
2019-01-16T18:01:05.608Z,5.25
2019-01-16T18:03:54.380Z,8.00
2019-01-16T18:06:42.864Z,5.60
2019-01-16T18:09:23.011Z,6.40
2019-01-16T18:12:09.921Z,5.75
2019-01-16T18:14:57.259Z,6.85
2019-01-16T18:17:44.372Z,7.08
2019-01-16T18:20:36.993Z,6.85
2019-01-16T18:23:24.087Z,7.33
2019-01-16T18:26:12.560Z,7.33
2019-01-16T18:28:52.557Z,7.20
2019-01-16T18:31:44.056Z,8.38
2019-01-16T18:34:32.970Z,7.55
2019-01-16T18:37:20.396Z,7.50
2019-01-16T18:40:20.833Z,6.47
2019-01-16T18:43:09.592Z,6.30
2019-01-16T18:45:57.245Z,7.58
2019-01-16T18:48:44.092Z,7.08
2019-01-16T18:51:47.769Z,7.03
2019-01-16T18:54:30.826Z,6.67
2019-01-16T18:57:17.693Z,6.55
2019-01-16T19:00:04.899Z,6.37
2019-01-16T19:02:56.309Z,6.97
2019-01-16T19:05:57.181Z,5.83
2019-01-16T19:08:42.915Z,5.87
2019-01-16T19:11:40.223Z,6.40
2019-01-16T19:14:20.067Z,6.47
2019-01-16T19:17:07.042Z,5.97
2019-01-16T19:19:52.672Z,6.90
2019-01-16T19:22:44.260Z,6.05
2019-01-16T19:25:26.352Z,7.10
2019-01-16T19:28:23.879Z,6.67
2019-01-16T19:31:18.451Z,6.33
2019-01-16T19:34:06.926Z,7.33
2019-01-16T19:36:58.044Z,5.92
2019-01-16T19:39:45.217Z,5.58
2019-01-16T19:42:33.701Z,5.70
2019-01-16T19:45:25.351Z,6.53
2019-01-16T19:48:16.840Z,5.85
2019-01-16T19:51:05.592Z,6.40
2019-01-16T19:53:52.570Z,5.20
2019-01-16T19:56:34.932Z,6.25
2019-01-16T19:59:22.468Z,6.00
2019-01-16T20:02:26.189Z,5.45
2019-01-16T20:05:14.658Z,5.33
2019-01-16T20:07:57.309Z,5.60
2019-01-16T20:10:35.234Z,5.75
2019-01-16T20:13:23.774Z,6.17
2019-01-16T20:16:10.924Z,5.08
2019-01-16T20:18:51.783Z,4.30
2019-01-16T20:21:40.233Z,6.30
2019-01-16T20:24:31.819Z,4.55
2019-01-16T20:27:18.974Z,4.90
2019-01-16T20:30:07.495Z,5.12
2019-01-16T20:32:54.315Z,4.62
2019-01-16T20:35:34.574Z,5.10
2019-01-16T20:38:23.131Z,5.35
2019-01-16T20:41:06.599Z,4.55
2019-01-16T20:43:56.171Z,4.83
2019-01-16T20:46:47.706Z,4.90
2019-01-16T20:49:37.515Z,5.12
2019-01-16T20:52:38.140Z,5.33
2019-01-16T20:55:25.063Z,5.85
2019-01-16T20:58:28.603Z,4.53
2019-01-16T21:01:13.717Z,4.30
2019-01-16T21:04:05.069Z,5.42
2019-01-16T21:06:52.054Z,5.17
2019-01-16T21:09:45.637Z,5.50
2019-01-16T21:12:32.855Z,6.15
2019-01-16T21:15:27.520Z,6.10
2019-01-16T21:18:07.755Z,5.25
2019-01-16T21:20:59.730Z,6.50
2019-01-16T21:23:53.994Z,6.22
2019-01-16T21:26:41.384Z,6.40
2019-01-16T21:29:38.768Z,7.65
2019-01-16T21:32:22.725Z,7.62
2019-01-16T21:35:10.307Z,6.75
2019-01-16T21:38:10.938Z,8.00
2019-01-16T21:40:59.785Z,8.33
2019-01-16T21:44:06.847Z,7.25
2019-01-16T21:46:59.380Z,8.08
2019-01-16T21:49:47.890Z,7.12
2019-01-16T21:52:34.946Z,8.53
2019-01-16T21:55:32.105Z,8.28
2019-01-16T21:58:23.402Z,8.58
2019-01-16T22:01:10.655Z,7.55
2019-01-16T22:03:58.219Z,6.65
2019-01-16T22:06:46.683Z,6.50
2019-01-16T22:09:44.345Z,7.47
2019-01-16T22:12:41.597Z,7.00
2019-01-16T22:15:38.093Z,7.08
2019-01-16T22:18:36.033Z,6.47
2019-01-16T22:21:30.341Z,6.80
2019-01-16T22:24:19.094Z,7.22
2019-01-16T22:27:22.746Z,7.75
2019-01-16T22:30:03.674Z,7.37
2019-01-16T22:32:50.528Z,7.62
2019-01-16T22:35:30.110Z,7.95
2019-01-16T22:38:18.773Z,7.97
2019-01-16T22:41:11.491Z,8.00
2019-01-16T22:44:17.991Z,8.03
2019-01-16T22:47:04.837Z,7.90
2019-01-16T22:49:52.066Z,7.60
2019-01-16T22:52:40.555Z,7.30
2019-01-16T22:55:27.994Z,7.03
2019-01-16T22:58:15.193Z,8.18
2019-01-16T23:01:06.184Z,6.37
2019-01-16T23:03:54.995Z,6.62
2019-01-16T23:06:52.224Z,6.30
2019-01-16T23:09:43.557Z,7.20
2019-01-16T23:12:30.720Z,5.97
2019-01-16T23:15:34.220Z,5.42
2019-01-16T23:18:25.845Z,6.03
2019-01-16T23:21:11.172Z,6.08
2019-01-16T23:24:08.867Z,5.80
2019-01-16T23:26:56.054Z,5.75
2019-01-16T23:29:50.169Z,5.28
2019-01-16T23:32:38.001Z,5.78
2019-01-16T23:35:27.014Z,4.97
2019-01-16T23:38:28.974Z,5.05
2019-01-16T23:41:16.397Z,5.35
2019-01-16T23:44:04.871Z,5.70
2019-01-16T23:46:45.952Z,6.75
2019-01-16T23:49:49.682Z,5.17
2019-01-16T23:52:56.126Z,5.40
2019-01-16T23:55:36.554Z,5.50
2019-01-16T23:58:43.495Z,5.80
